M I D A S
Marine Information and Data Acquisition System
Tripno 382 of the Zeeleeuw from 2002-08-01 07:53:26 to 2002-08-01 14:23:53
Back to CruiseResearch ActivitiesStationsMapUnderway DataData graphs

EquipmentUnitsComment
TimeDGPSUTC
LatitudeDGPSDM.mWGS84
LongitudeDGPSDM.mWGS84
HeadingGyrodeg 
SOGDGPSknotsSpeed over ground
COGDGPSdegCourse over ground
DepthEcho soundermeters200 kHz
Missing or incorrect values are displayed as -999
Navigation data collected by the RV Zeeleeuw from 2002-08-01 07:53:26 to 2002-08-01 14:23:53
Time Latitude Longitude Heading SOG COG Depth
2002-08-01 07:54:29 51°13.668 2°55.929 103.5 2 286.1 -999
2002-08-01 07:55:29 51°13.675 2°55.863 96.3 2.7 277.4 -999
2002-08-01 07:56:29 51°13.68 2°55.787 89.8 2.7 273.5 -999
2002-08-01 07:57:28 51°13.679 2°55.739 68.3 0.9 267.8 14.1
2002-08-01 07:58:28 51°13.689 2°55.738 24 1.2 10.7 14.1
2002-08-01 07:59:28 51°13.737 2°55.712 336 4.9 332.8 10.9
2002-08-01 08:00:28 51°13.83 2°55.633 336 7.3 333.4 11.3
2002-08-01 08:01:28 51°13.947 2°55.546 337.8 8 335.4 11.3
2002-08-01 08:02:28 51°14.07 2°55.454 338.2 8.2 335.4 11.2
2002-08-01 08:03:28 51°14.192 2°55.352 328.7 8.3 326.5 11.5
2002-08-01 08:04:28 51°14.293 2°55.201 313.3 8.6 310.6 11.3
2002-08-01 08:05:28 51°14.395 2°55.002 319.5 10.1 315 10.9
2002-08-01 08:06:28 51°14.526 2°54.825 327 10.3 322.4 10.6
2002-08-01 08:07:28 51°14.665 2°54.669 330 9.8 326.6 10.4
2002-08-01 08:08:28 51°14.79 2°54.551 340.8 8.2 336.7 10.5
2002-08-01 08:09:28 51°14.941 2°54.501 5.2 10.9 0.9 9.7
2002-08-01 08:10:28 51°15.143 2°54.585 28.2 13.5 24.1 9.1
2002-08-01 08:11:28 51°15.322 2°54.81 42.2 13.9 39.1 9.2
2002-08-01 08:12:28 51°15.494 2°55.061 49.5 14.1 46.3 9.4
2002-08-01 08:13:29 51°15.651 2°55.344 51.7 14.1 48.5 9.5
2002-08-01 08:14:29 51°15.8 2°55.63 55.7 14.1 52.5 9.5
2002-08-01 08:15:29 51°15.947 2°55.92 54.3 14 51.3 9.7
2002-08-01 08:16:29 51°16.085 2°56.222 59 14 55.9 9.8
2002-08-01 08:17:29 51°16.213 2°56.531 62 13.9 58.8 9.9
2002-08-01 08:18:29 51°16.334 2°56.845 61.5 13.9 58.3 9.9
2002-08-01 08:19:29 51°16.456 2°57.157 61.3 13.9 57.9 10
2002-08-01 08:20:29 51°16.579 2°57.468 61.3 13.9 57.7 10
2002-08-01 08:21:29 51°16.706 2°57.779 61 14 57.4 9.9
2002-08-01 08:22:29 51°16.83 2°58.093 60.2 14 56.8 9.9
2002-08-01 08:23:29 51°16.954 2°58.405 61.5 14 57.9 9.9
2002-08-01 08:24:29 51°17.08 2°58.718 61.5 14 58 9.9
2002-08-01 08:25:29 51°17.203 2°59.032 61.2 14 57.9 9.8
2002-08-01 08:26:29 51°17.33 2°59.343 61.2 14 57.6 9.7
2002-08-01 08:27:29 51°17.454 2°59.656 60.7 14 57.1 9.5
2002-08-01 08:28:29 51°17.578 2°59.968 62.3 13.9 58.5 9.6
2002-08-01 08:29:29 51°17.7 3°0.282 61.3 13.8 57.8 9.3
2002-08-01 08:30:29 51°17.824 3°0.593 60 13.9 56.5 9.1
2002-08-01 08:31:29 51°17.949 3°0.898 59.2 13.6 55.6 8.8
2002-08-01 08:32:29 51°18.073 3°1.203 61.8 13.8 58.2 8.9
2002-08-01 08:33:29 51°18.196 3°1.507 60.5 13.7 57 8.6
2002-08-01 08:34:29 51°18.32 3°1.806 62.3 13.6 58.5 8.7
2002-08-01 08:35:29 51°18.439 3°2.112 59.7 13.5 56.2 8.4
2002-08-01 08:36:29 51°18.557 3°2.417 61.5 13.5 58.1 8.5
2002-08-01 08:37:29 51°18.677 3°2.718 64 13.4 60.4 8.1
2002-08-01 08:38:29 51°18.804 3°3.008 55.5 13.3 51.4 7.9
2002-08-01 08:39:29 51°18.939 3°3.291 55 13.4 51.2 8.1
2002-08-01 08:40:29 51°19.071 3°3.576 62.2 13.4 58.5 8.2
2002-08-01 08:41:29 51°19.197 3°3.864 56 13.3 51.6 8.3
2002-08-01 08:42:29 51°19.322 3°4.157 59.2 13.4 55.5 8.2
2002-08-01 08:43:29 51°19.463 3°4.425 54.5 13.3 50.3 8.2
2002-08-01 08:44:29 51°19.597 3°4.702 53.7 13.2 49.7 8.3
2002-08-01 08:45:29 51°19.738 3°4.971 55.8 13.2 51.4 8.2
2002-08-01 08:46:29 51°19.88 3°5.237 52.7 13.1 47.9 8.2
2002-08-01 08:47:29 51°20.012 3°5.514 56.2 13.1 52.3 8.1
2002-08-01 08:48:29 51°20.155 3°5.774 56 13 51.6 8
2002-08-01 08:49:29 51°20.287 3°6.047 51.3 13 47.2 7.9
2002-08-01 08:50:29 51°20.423 3°6.314 61.7 12.9 57.7 7.9
2002-08-01 08:51:29 51°20.57 3°6.559 42.8 12.9 38.1 7.8
2002-08-01 08:52:29 51°20.721 3°6.801 50.8 12.7 47.1 7.8
2002-08-01 08:53:29 51°20.896 3°6.996 38 12.9 33 7.8
2002-08-01 08:54:29 51°21.074 3°7.197 48 13.1 43.1 8.1
2002-08-01 08:55:29 51°21.241 3°7.426 43.8 13.4 39.1 8.8
2002-08-01 08:56:29 51°21.414 3°7.658 43.8 13.6 39.2 9.5
2002-08-01 08:57:29 51°21.588 3°7.891 46.8 13.6 41.8 10.4
2002-08-01 08:58:29 51°21.76 3°8.128 45.3 13.6 40.3 11
2002-08-01 08:59:29 51°21.932 3°8.366 46 13.7 40.9 11.5
2002-08-01 09:00:29 51°22.103 3°8.605 45.8 13.7 40.7 12.2
2002-08-01 09:01:29 51°22.276 3°8.842 45.5 13.8 40.5 12.6
2002-08-01 09:02:29 51°22.451 3°9.079 45.2 13.6 39.9 13
2002-08-01 09:03:29 51°22.558 3°9.26 53.8 7.6 48.5 13.4
2002-08-01 09:04:29 51°22.626 3°9.386 57 5.3 50.5 13.4
2002-08-01 09:05:29 51°22.675 3°9.467 46 3.6 38.4 13.3
2002-08-01 09:06:29 51°22.694 3°9.478 27.3 0.3 297.6 13.3
2002-08-01 09:07:29 51°22.697 3°9.469 29.2 0.4 296.3 13.3
2002-08-01 09:08:29 51°22.7 3°9.459 28.5 0.4 303.3 13.5
2002-08-01 09:09:29 51°22.705 3°9.452 28.3 0.5 332.4 13.4
2002-08-01 09:10:29 51°22.719 3°9.45 29.2 1 0.7 13.3
2002-08-01 09:11:29 51°22.735 3°9.452 41 0.9 9.7 13.3
2002-08-01 09:12:29 51°22.747 3°9.459 57.5 0.7 30.3 13.4
2002-08-01 09:13:29 51°22.755 3°9.471 75 0.6 54.5 13.4
2002-08-01 09:14:29 51°22.758 3°9.485 91.7 0.5 83.3 13.4
2002-08-01 09:15:29 51°22.755 3°9.498 108.7 0.5 115.2 13.4
2002-08-01 09:16:29 51°22.747 3°9.508 127.8 0.7 157 13.4
2002-08-01 09:17:29 51°22.734 3°9.511 147.3 0.8 179.4 13.4
2002-08-01 09:18:29 51°22.72 3°9.506 165.3 1 198.1 13.4
2002-08-01 09:19:29 51°22.705 3°9.494 178.5 0.9 216.5 13.3
2002-08-01 09:20:29 51°22.698 3°9.477 189 0.6 285.8 13.2
2002-08-01 09:21:29 51°22.699 3°9.463 191.2 0.5 267.9 13.3
2002-08-01 09:22:29 51°22.699 3°9.448 186.3 0.5 273.1 13.3
2002-08-01 09:23:29 51°22.7 3°9.434 181.3 0.5 275.3 13.3
2002-08-01 09:24:29 51°22.701 3°9.42 174.2 0.6 276 13.2
2002-08-01 09:25:29 51°22.702 3°9.403 167 0.6 278 13.3
2002-08-01 09:26:29 51°22.703 3°9.386 164.5 0.7 274.5 13.2
2002-08-01 09:27:29 51°22.702 3°9.369 164.2 0.6 264.6 13.2
2002-08-01 09:28:29 51°22.698 3°9.353 172 0.7 234 13.3
2002-08-01 09:29:28 51°22.687 3°9.334 189.2 1.1 224.3 13
2002-08-01 09:30:29 51°22.671 3°9.308 207.7 1.5 228.1 13
2002-08-01 09:31:29 51°22.655 3°9.272 226.3 1.8 237.5 13.1
2002-08-01 09:32:29 51°22.642 3°9.229 242.7 1.8 247.3 13.1
2002-08-01 09:33:29 51°22.631 3°9.181 256.5 1.8 252 13
2002-08-01 09:34:29 51°22.625 3°9.133 271.3 1.9 262.5 12.8
2002-08-01 09:35:29 51°22.623 3°9.084 287 1.9 270 12.8
2002-08-01 09:36:29 51°22.626 3°9.036 304.2 1.8 278 13
2002-08-01 09:37:29 51°22.633 3°8.992 324.7 1.6 290.1 12.8
2002-08-01 09:38:29 51°22.643 3°8.957 351 1.3 300.7 12.8
2002-08-01 09:39:29 51°22.654 3°8.934 16.5 1 311.7 12.8
2002-08-01 09:40:29 51°22.665 3°8.92 38.5 0.7 332.6 12.8
2002-08-01 09:41:29 51°22.675 3°8.915 58 0.5 347.9 12.9
2002-08-01 09:42:29 51°22.68 3°8.917 79 0.2 40.9 12.9
2002-08-01 09:43:29 51°22.679 3°8.932 93.5 0.9 101 12.8
2002-08-01 09:44:29 51°22.673 3°8.962 105 1.4 114.4 12.8
2002-08-01 09:45:29 51°22.657 3°8.997 116.8 1.7 130.2 12.8
2002-08-01 09:46:29 51°22.633 3°9.026 134.2 1.8 154.1 12.8
2002-08-01 09:47:29 51°22.602 3°9.033 156 1.9 182.9 12.8
2002-08-01 09:48:29 51°22.572 3°9.018 176.5 1.9 204.2 12.8
2002-08-01 09:49:29 51°22.543 3°8.989 193.3 2.1 216.8 12.9
2002-08-01 09:50:29 51°22.511 3°8.941 220.7 3.5 228.8 12.7
2002-08-01 09:51:29 51°22.485 3°8.833 269.7 4.8 263.8 12.7
2002-08-01 09:52:29 51°22.518 3°8.706 324 6.8 311.7 12.5
2002-08-01 09:53:29 51°22.63 3°8.53 330.7 10.7 322 12.5
2002-08-01 09:54:29 51°22.816 3°8.348 344.2 14 336.1 12.5
2002-08-01 09:55:29 51°23.038 3°8.22 351.3 14.2 343.3 11.7
2002-08-01 09:56:29 51°23.269 3°8.157 359 14.2 351.2 11.8
2002-08-01 09:57:29 51°23.504 3°8.109 359.7 14.4 352.9 15.7
2002-08-01 09:58:29 51°23.741 3°8.064 359.7 14.3 353.1 17.5
2002-08-01 09:59:29 51°23.976 3°8.014 359 14.3 352.2 18.5
2002-08-01 10:00:29 51°24.211 3°7.961 359 14.3 351.7 15.8
2002-08-01 10:01:29 51°24.442 3°7.907 359 13.7 351.7 11.2
2002-08-01 10:02:29 51°24.655 3°7.856 358.3 12.7 351.1 10.1
2002-08-01 10:03:29 51°24.862 3°7.819 1.3 12.3 354.2 9.3
2002-08-01 10:04:29 51°25.063 3°7.81 10.2 12 2.8 7.9
2002-08-01 10:05:29 51°25.262 3°7.843 12.5 12.1 5.7 7.8
2002-08-01 10:06:29 51°25.463 3°7.875 12.5 12.2 5.9 8.4
2002-08-01 10:07:29 51°25.664 3°7.912 12 12.1 6.4 8.7
2002-08-01 10:08:29 51°25.863 3°7.954 19.2 12 12.2 9
2002-08-01 10:09:29 51°26.051 3°8.057 25.3 12 19.4 9.2
2002-08-01 10:10:29 51°26.239 3°8.161 24.8 12 19.1 9.7
2002-08-01 10:11:29 51°26.429 3°8.262 24 12.1 18.2 10.2
2002-08-01 10:12:29 51°26.62 3°8.363 24.3 12.1 18.6 10.8
2002-08-01 10:13:29 51°26.812 3°8.468 24.2 12.2 18.5 11.3
2002-08-01 10:14:29 51°26.991 3°8.562 23.3 9.9 17.4 11.5
2002-08-01 10:15:29 51°27.132 3°8.625 21.5 8.3 15.3 11.7
2002-08-01 10:16:29 51°27.26 3°8.682 21.8 7.9 15.5 12.1
2002-08-01 10:17:29 51°27.385 3°8.736 22 7.8 15.3 12
2002-08-01 10:18:29 51°27.51 3°8.791 22 7.7 15.5 12.4
2002-08-01 10:19:29 51°27.635 3°8.845 21.7 7.8 14.8 12.5
2002-08-01 10:20:29 51°27.76 3°8.898 22.2 7.8 14.8 12.8
2002-08-01 10:21:29 51°27.885 3°8.952 22.5 7.6 15.2 13.1
2002-08-01 10:22:29 51°27.993 3°8.996 21.8 6.4 13.6 13.2
2002-08-01 10:23:29 51°28.092 3°9.04 30.3 6 20.4 13.4
2002-08-01 10:24:29 51°28.154 3°9.106 56 3.6 41.7 13.2
2002-08-01 10:25:29 51°28.181 3°9.157 71.5 1.9 53.7 13.3
2002-08-01 10:26:29 51°28.195 3°9.192 76 1.2 54 13.2
2002-08-01 10:27:29 51°28.201 3°9.19 71 0.9 268.3 13.3
2002-08-01 10:28:29 51°28.201 3°9.158 79.7 1.1 273.4 13.4
2002-08-01 10:29:29 51°28.203 3°9.131 83.2 0.9 276.3 13.3
2002-08-01 10:30:29 51°28.204 3°9.109 86.3 0.8 275.8 13.5
2002-08-01 10:31:29 51°28.206 3°9.086 88.7 0.9 277.4 13.4
2002-08-01 10:32:29 51°28.207 3°9.061 93.3 1.1 275.4 13.4
2002-08-01 10:33:29 51°28.211 3°9.024 103.3 1.4 281.1 13.5
2002-08-01 10:34:30 51°28.209 3°9.018 134.7 0.8 145.9 13.4
2002-08-01 10:35:29 51°28.188 3°9.039 141.5 1.7 147 13.4
2002-08-01 10:36:29 51°28.164 3°9.066 139.7 1.8 145.2 13.2
2002-08-01 10:37:29 51°28.14 3°9.095 135.5 1.6 141.5 13.3
2002-08-01 10:38:29 51°28.126 3°9.121 114 1.1 116.9 13.2
2002-08-01 10:39:29 51°28.125 3°9.148 84.8 1 73.9 13.1
2002-08-01 10:40:29 51°28.139 3°9.172 52.7 1.4 33.3 13
2002-08-01 10:41:28 51°28.158 3°9.185 41.2 1.2 18.9 13.1
2002-08-01 10:42:29 51°28.176 3°9.193 38.5 1.1 13 13.2
2002-08-01 10:43:29 51°28.194 3°9.197 32.3 1 5.2 13.2
2002-08-01 10:44:29 51°28.21 3°9.197 23.3 1.1 355 13.3
2002-08-01 10:45:30 51°28.23 3°9.189 2.5 1.4 340 13.4
2002-08-01 10:46:29 51°28.262 3°9.139 298.5 3.7 296.7 13.5
2002-08-01 10:47:29 51°28.247 3°9.039 219.7 4.1 227.3 13.5
2002-08-01 10:48:29 51°28.194 3°9.024 162 2.6 172.7 13.3
2002-08-01 10:49:29 51°28.161 3°9.035 151 1.7 165.5 13.2
2002-08-01 10:50:29 51°28.14 3°9.047 136.5 1.1 155.1 13
2002-08-01 10:51:29 51°28.127 3°9.062 118.2 0.8 132.3 13.1
2002-08-01 10:52:29 51°28.121 3°9.08 100 0.7 104.9 13.1
2002-08-01 10:53:29 51°28.122 3°9.098 79.3 0.7 67.1 13
2002-08-01 10:54:29 51°28.129 3°9.112 60.5 0.7 37.9 13.1
2002-08-01 10:55:29 51°28.14 3°9.121 47 0.8 21 13
2002-08-01 10:56:29 51°28.153 3°9.129 41.7 0.9 15.8 13.1
2002-08-01 10:57:29 51°28.166 3°9.133 39.5 0.8 9.9 13.2
2002-08-01 10:58:29 51°28.178 3°9.136 37.5 0.7 2.7 13.1
2002-08-01 10:59:29 51°28.189 3°9.135 34.3 0.6 353 13.1
2002-08-01 11:00:29 51°28.198 3°9.132 31.7 0.5 344.8 13.3
2002-08-01 11:01:29 51°28.205 3°9.127 30.3 0.4 330.2 13.2
2002-08-01 11:02:29 51°28.209 3°9.121 30.2 0.3 300.8 13.2
2002-08-01 11:03:29 51°28.209 3°9.112 32.5 0.4 257.2 13.2
2002-08-01 11:04:28 51°28.21 3°9.105 42 0.3 344.6 13.3
2002-08-01 11:05:29 51°28.221 3°9.121 72.5 1.3 63.7 13.3
2002-08-01 11:06:29 51°28.219 3°9.161 115 1.7 117.8 13.2
2002-08-01 11:07:29 51°28.193 3°9.19 150.8 2 159.8 13
2002-08-01 11:08:29 51°28.159 3°9.193 178.3 2.1 187.9 13
2002-08-01 11:09:29 51°28.128 3°9.171 205 2 212.4 13
2002-08-01 11:10:29 51°28.104 3°9.134 230.7 2.1 233.3 13.2
2002-08-01 11:11:29 51°28.089 3°9.078 262.8 2.2 256.8 13.2
2002-08-01 11:12:29 51°28.089 3°9.021 292.3 2.1 279.2 13.1
2002-08-01 11:13:29 51°28.1 3°8.973 323.3 1.9 303 13.1
2002-08-01 11:14:29 51°28.122 3°8.943 357.2 1.6 331.6 13.1
2002-08-01 11:15:29 51°28.159 3°8.926 348.8 4.1 340 13.1
2002-08-01 11:16:29 51°28.227 3°8.779 295.7 10.2 291.6 13.3
2002-08-01 11:17:29 51°28.265 3°8.428 275.8 14.3 272.7 12.9
2002-08-01 11:18:29 51°28.283 3°8.043 277 14.6 273.7 12.7
2002-08-01 11:19:29 51°28.305 3°7.655 280 14.6 276.7 13.7
2002-08-01 11:20:29 51°28.333 3°7.266 281.2 14.6 277.1 14.3
2002-08-01 11:21:29 51°28.363 3°6.878 281.2 14.7 277 14.7
2002-08-01 11:22:29 51°28.398 3°6.488 282.2 14.8 278 14.8
2002-08-01 11:23:29 51°28.429 3°6.098 280.2 14.8 276.7 15.3
2002-08-01 11:24:29 51°28.458 3°5.706 280.5 14.8 276.6 15.2
2002-08-01 11:25:29 51°28.487 3°5.314 280.8 14.8 276.9 15.7
2002-08-01 11:26:29 51°28.516 3°4.92 280.7 14.9 276.9 18.1
2002-08-01 11:27:29 51°28.546 3°4.525 281 15 277.1 19.8
2002-08-01 11:28:29 51°28.57 3°4.192 279.7 10 274.9 21.2
2002-08-01 11:29:29 51°28.56 3°3.992 261.7 6.3 258.4 21.8
2002-08-01 11:30:29 51°28.557 3°3.859 294.7 4.1 279.6 22.1
2002-08-01 11:31:29 51°28.579 3°3.775 323 3.1 300.1 22.4
2002-08-01 11:32:29 51°28.606 3°3.722 350.5 2.3 317.2 22.4
2002-08-01 11:33:29 51°28.632 3°3.701 23.7 1.4 346.1 22.5
2002-08-01 11:34:29 51°28.648 3°3.706 54.5 0.8 32.3 22.6
2002-08-01 11:35:29 51°28.655 3°3.718 60.8 0.5 53.3 22.6
2002-08-01 11:36:29 51°28.659 3°3.727 58.5 0.4 42.1 22.6
2002-08-01 11:37:29 51°28.664 3°3.731 49.3 0.4 14.6 22.5
2002-08-01 11:38:29 51°28.671 3°3.731 37.3 0.5 346.8 22.6
2002-08-01 11:39:29 51°28.681 3°3.726 27.2 0.7 335.5 22.5
2002-08-01 11:40:29 51°28.692 3°3.716 21 0.8 324.1 22.6
2002-08-01 11:41:29 51°28.701 3°3.701 18.2 0.8 305.9 22.6
2002-08-01 11:42:29 51°28.706 3°3.682 17.7 0.7 283 22.8
2002-08-01 11:43:29 51°28.706 3°3.663 18 0.7 269.2 22.8
2002-08-01 11:44:29 51°28.706 3°3.644 17.8 0.7 256.8 22.7
2002-08-01 11:45:29 51°28.701 3°3.623 17 0.9 250 22.7
2002-08-01 11:46:29 51°28.704 3°3.61 37.2 1.4 13.7 22.7
2002-08-01 11:47:29 51°28.712 3°3.649 83.2 1.1 95.5 22.7
2002-08-01 11:48:29 51°28.706 3°3.676 88.2 1 115.3 22.7
2002-08-01 11:49:29 51°28.699 3°3.7 88.7 0.9 117.9 22.7
2002-08-01 11:50:29 51°28.692 3°3.719 87.7 0.8 124.8 22.6
2002-08-01 11:51:29 51°28.684 3°3.734 85.7 0.6 131 22.6
2002-08-01 11:52:29 51°28.677 3°3.744 85.5 0.6 141.2 22.5
2002-08-01 11:53:29 51°28.669 3°3.752 85.2 0.6 150.8 22.6
2002-08-01 11:54:29 51°28.662 3°3.759 83.8 0.5 158.6 22.5
2002-08-01 11:55:29 51°28.654 3°3.763 83.5 0.6 167 22.5
2002-08-01 11:56:29 51°28.645 3°3.766 80 0.5 171 22.5
2002-08-01 11:57:29 51°28.639 3°3.769 63.8 0.2 135 22.5
2002-08-01 11:58:29 51°28.64 3°3.771 48.8 0.2 23.2 22.5
2002-08-01 11:59:29 51°28.647 3°3.771 35.2 0.5 354.2 22.5
2002-08-01 12:00:29 51°28.659 3°3.767 23 0.8 340.1 22.6
2002-08-01 12:01:29 51°28.674 3°3.756 11.5 1.1 329.6 22.5
2002-08-01 12:02:29 51°28.69 3°3.734 357.8 1.4 316.1 22.6
2002-08-01 12:03:29 51°28.704 3°3.704 350.3 1.4 302 22.6
2002-08-01 12:04:29 51°28.718 3°3.674 358.3 1.4 310.7 22.7
2002-08-01 12:05:28 51°28.734 3°3.653 18 1.1 330.3 22.9
2002-08-01 12:06:29 51°28.747 3°3.647 41 0.6 5.2 22.8
2002-08-01 12:07:29 51°28.753 3°3.656 63.8 0.5 80.2 22.8
2002-08-01 12:08:29 51°28.749 3°3.672 86.5 0.9 123.3 22.8
2002-08-01 12:09:29 51°28.734 3°3.694 108 1.4 146.3 22.8
2002-08-01 12:10:29 51°28.709 3°3.711 129.3 1.8 163.9 22.6
2002-08-01 12:11:29 51°28.675 3°3.717 150 2.2 178.8 22.6
2002-08-01 12:12:29 51°28.636 3°3.711 169.2 2.5 190.6 22.5
2002-08-01 12:13:29 51°28.568 3°3.651 230 6.2 225.7 22.5
2002-08-01 12:14:29 51°28.491 3°3.494 231.5 8.2 230.8 22.4
2002-08-01 12:15:29 51°28.365 3°3.249 231.5 14.6 230.8 22.4
2002-08-01 12:16:29 51°28.208 3°2.934 231 15.2 230.6 22.6
2002-08-01 12:17:29 51°28.048 3°2.617 231.7 15.3 231.4 22.9
2002-08-01 12:18:29 51°27.891 3°2.294 232.8 15.4 232.5 23
2002-08-01 12:19:29 51°27.732 3°1.97 232 15.5 231.5 22.7
2002-08-01 12:20:29 51°27.57 3°1.649 232 15.5 231.4 22.8
2002-08-01 12:21:29 51°27.405 3°1.328 230.2 15.6 229.7 22.1
2002-08-01 12:22:29 51°27.236 3°1.008 230.3 15.8 229.3 22.3
2002-08-01 12:23:29 51°27.063 3°0.694 231.3 15.7 229 23.8
2002-08-01 12:24:29 51°26.892 3°0.379 230.8 15.7 228.8 24.1
2002-08-01 12:25:29 51°26.72 3°0.064 230.7 15.6 228.6 24.1
2002-08-01 12:26:29 51°26.544 2°59.754 229.5 15.8 227.3 24
2002-08-01 12:27:29 51°26.368 2°59.442 230.7 15.6 228.8 24.2
2002-08-01 12:28:29 51°26.197 2°59.137 229.7 15.3 228 24.3
2002-08-01 12:29:29 51°26.027 2°58.834 229.7 15.3 227.9 24.4
2002-08-01 12:30:29 51°25.857 2°58.529 229.5 15.3 228.2 24.1
2002-08-01 12:31:29 51°25.687 2°58.222 230.3 15.3 228.9 24
2002-08-01 12:32:29 51°25.519 2°57.915 229.8 15.3 228.6 23.4
2002-08-01 12:33:29 51°25.353 2°57.607 230.7 15.3 229.6 23.8
2002-08-01 12:34:29 51°25.187 2°57.302 230 15.2 229.5 23.6
2002-08-01 12:35:29 51°25.023 2°56.993 229.8 15.3 229.5 23.5
2002-08-01 12:36:29 51°24.857 2°56.683 230.2 15.3 229.5 22.9
2002-08-01 12:37:29 51°24.69 2°56.375 229.7 15.4 229 22.2
2002-08-01 12:38:29 51°24.521 2°56.066 229.8 15.5 229 21.7
2002-08-01 12:39:29 51°24.352 2°55.756 229.5 15.4 228.5 22.9
2002-08-01 12:40:29 51°24.182 2°55.447 230.3 15.5 228.8 20.8
2002-08-01 12:41:29 51°24.012 2°55.136 229.8 15.6 228.6 20.1
2002-08-01 12:42:29 51°23.838 2°54.827 230 15.7 228.5 19.6
2002-08-01 12:43:29 51°23.666 2°54.514 230.3 15.6 229 19.3
2002-08-01 12:44:29 51°23.494 2°54.201 230 15.7 228.9 19.4
2002-08-01 12:45:29 51°23.322 2°53.888 229.5 15.7 228.3 19.3
2002-08-01 12:46:29 51°23.151 2°53.576 229.8 15.5 228.7 20.3
2002-08-01 12:47:29 51°22.98 2°53.265 229.8 15.4 228.9 21.6
2002-08-01 12:48:29 51°22.814 2°52.956 229.7 15.3 228.6 21.4
2002-08-01 12:49:29 51°22.646 2°52.647 230 15.3 229.4 21.7
2002-08-01 12:50:29 51°22.477 2°52.339 229.3 15.4 228.8 22.1
2002-08-01 12:51:29 51°22.309 2°52.028 229.8 15.5 229.5 23
2002-08-01 12:52:29 51°22.146 2°51.714 230 15.3 230.5 22.8
2002-08-01 12:53:29 51°21.979 2°51.403 229.8 15.4 229.6 23.1
2002-08-01 12:54:29 51°21.814 2°51.088 229.7 15.5 229.6 23.3
2002-08-01 12:55:29 51°21.648 2°50.775 229.8 15.3 229.7 23.4
2002-08-01 12:56:29 51°21.483 2°50.467 229.8 15.3 229.4 22.9
2002-08-01 12:57:29 51°21.318 2°50.159 229.8 15.3 229.6 22.3
2002-08-01 12:58:29 51°21.153 2°49.849 229.8 15.3 229.3 22.4
2002-08-01 12:59:29 51°20.987 2°49.538 230.7 15.4 230.4 22.2
2002-08-01 13:00:29 51°20.82 2°49.229 229.8 15.3 229.7 22.2
2002-08-01 13:01:29 51°20.655 2°48.916 228.8 15.4 228.9 22
2002-08-01 13:02:29 51°20.482 2°48.612 224.8 15.5 225.3 21.8
2002-08-01 13:03:29 51°20.298 2°48.325 224.7 15.5 225.2 21.6
2002-08-01 13:04:29 51°20.135 2°48.061 226.8 11 226.3 21.7
2002-08-01 13:05:29 51°20.034 2°47.92 207.7 6.6 213.1 21.8
2002-08-01 13:06:29 51°19.954 2°47.835 214.7 5.3 217.3 21.6
2002-08-01 13:07:29 51°19.908 2°47.767 237.7 1.6 223.4 21.7
2002-08-01 13:08:29 51°19.905 2°47.775 230.7 0.2 125.2 21.7
2002-08-01 13:09:29 51°19.903 2°47.772 217.8 0.3 239.2 21.6
2002-08-01 13:10:29 51°19.899 2°47.761 205 0.6 245.1 21.7
2002-08-01 13:11:29 51°19.896 2°47.745 195.5 0.7 254.2 21.7
2002-08-01 13:12:29 51°19.893 2°47.725 184 0.8 258.8 21.7
2002-08-01 13:13:29 51°19.89 2°47.701 171.3 1 261.4 21.7
2002-08-01 13:14:29 51°19.884 2°47.674 155 1.2 228.5 21.6
2002-08-01 13:15:29 51°19.865 2°47.66 119 1.3 192.2 21.6
2002-08-01 13:16:29 51°19.848 2°47.662 82.8 0.7 157.5 21.6
2002-08-01 13:17:29 51°19.845 2°47.67 53.8 0.4 60.5 21.7
2002-08-01 13:18:29 51°19.854 2°47.681 45.3 0.9 29.5 21.7
2002-08-01 13:19:29 51°19.87 2°47.695 43.7 1.3 29.5 21.7
2002-08-01 13:20:29 51°19.885 2°47.715 58 1 56.6 21.7
2002-08-01 13:21:29 51°19.889 2°47.739 74.5 0.9 88.2 21.7
2002-08-01 13:22:29 51°19.884 2°47.763 91.7 1.1 119.6 21.7
2002-08-01 13:23:29 51°19.872 2°47.785 91.3 0.9 131.7 21.7
2002-08-01 13:24:29 51°19.868 2°47.799 66 0.4 94.7 21.8
2002-08-01 13:25:29 51°19.871 2°47.803 45.2 0.3 3.4 21.8
2002-08-01 13:26:29 51°19.876 2°47.799 32.2 0.5 331.7 21.8
2002-08-01 13:27:29 51°19.885 2°47.79 25.3 0.6 324.3 21.8
2002-08-01 13:28:29 51°19.894 2°47.78 25 0.6 326.7 21.8
2002-08-01 13:29:29 51°19.903 2°47.771 25 0.7 326.4 21.9
2002-08-01 13:30:29 51°19.912 2°47.762 25.7 0.7 327 21.7
2002-08-01 13:31:29 51°19.921 2°47.753 30.7 0.6 331.5 21.9
2002-08-01 13:32:29 51°19.928 2°47.75 45 0.3 354.9 21.8
2002-08-01 13:33:29 51°19.93 2°47.753 64.2 0.2 96.1 21.8
2002-08-01 13:34:29 51°19.927 2°47.761 75.5 0.4 133.1 21.8
2002-08-01 13:35:29 51°19.922 2°47.77 74.2 0.5 125.2 21.8
2002-08-01 13:36:29 51°19.918 2°47.781 73.5 0.5 114.8 21.9
2002-08-01 13:37:29 51°19.913 2°47.796 85 0.8 124.2 21.9
2002-08-01 13:38:29 51°19.902 2°47.814 100.2 1.1 140.8 21.9
2002-08-01 13:39:29 51°19.886 2°47.832 111.2 1.3 151.7 22
2002-08-01 13:40:29 51°19.865 2°47.847 122 1.5 159.6 21.9
2002-08-01 13:41:29 51°19.838 2°47.859 131.8 1.8 166.1 21.9
2002-08-01 13:42:29 51°19.808 2°47.868 142.2 2 173.1 22
2002-08-01 13:43:29 51°19.773 2°47.87 153.8 2.2 182.9 21.9
2002-08-01 13:44:29 51°19.735 2°47.863 164.5 2.4 188.4 22
2002-08-01 13:45:29 51°19.658 2°47.889 136.7 7.3 145.3 21.8
2002-08-01 13:46:29 51°19.539 2°48.099 126 13 129 20.8
2002-08-01 13:47:29 51°19.394 2°48.373 126.3 13.6 130 18.2
2002-08-01 13:48:29 51°19.251 2°48.654 126.7 13.7 129.4 16
2002-08-01 13:49:29 51°19.107 2°48.936 126.7 13.7 129.2 13.9
2002-08-01 13:50:29 51°18.963 2°49.218 127.7 13.7 129.1 11.8
2002-08-01 13:51:29 51°18.816 2°49.502 127.2 13.9 129.7 10.5
2002-08-01 13:52:29 51°18.666 2°49.783 128.3 13.9 131 12
2002-08-01 13:53:29 51°18.513 2°50.064 127.7 14 130.7 13.8
2002-08-01 13:54:29 51°18.366 2°50.349 126.5 13.8 129.1 14
2002-08-01 13:55:29 51°18.22 2°50.635 126.5 13.8 129.2 13.1
2002-08-01 13:56:29 51°18.069 2°50.915 129.2 13.9 131.4 12.4
2002-08-01 13:57:29 51°17.918 2°51.195 128.7 13.9 129.9 10.9
2002-08-01 13:58:29 51°17.768 2°51.477 127.5 13.9 129.2 9.9
2002-08-01 13:59:29 51°17.607 2°51.747 133.3 14.1 135.7 10.1
2002-08-01 14:00:29 51°17.42 2°51.983 144.2 14.4 146.4 10.3
2002-08-01 14:01:29 51°17.208 2°52.163 154.3 14.5 155.9 10.4
2002-08-01 14:02:29 51°16.991 2°52.336 150.5 14.4 151.9 9.7
2002-08-01 14:03:29 51°16.775 2°52.512 150.8 14.6 151.9 10
2002-08-01 14:04:29 51°16.559 2°52.694 152.5 14.7 153.2 11.5
2002-08-01 14:05:29 51°16.341 2°52.871 152.2 14.7 154.4 12.3
2002-08-01 14:06:29 51°16.126 2°53.045 151.7 14.3 153.5 12.3
2002-08-01 14:07:29 51°15.926 2°53.207 150.2 11.4 154.1 12
2002-08-01 14:08:29 51°15.786 2°53.321 147.7 8.5 151.9 11.8
2002-08-01 14:09:29 51°15.647 2°53.451 145.7 11.7 147.6 11.3
2002-08-01 14:10:29 51°15.469 2°53.656 140.3 13.7 142.7 10.4
2002-08-01 14:11:29 51°15.294 2°53.88 136.2 13.5 137.5 9.7
2002-08-01 14:12:29 51°15.12 2°54.104 140.2 13.4 141.1 9.1
2002-08-01 14:13:29 51°14.945 2°54.328 143.3 13.7 143.5 8.8
2002-08-01 14:14:29 51°14.765 2°54.557 140.2 13.9 140.4 9.7
2002-08-01 14:15:29 51°14.591 2°54.789 141.2 13.3 141.2 9.5
2002-08-01 14:16:29 51°14.429 2°55.003 140.2 12.3 139.2 10
2002-08-01 14:17:29 51°14.291 2°55.224 136.7 10.5 134.3 10.6
2002-08-01 14:18:29 51°14.18 2°55.37 148 7.7 145.7 11.1
2002-08-01 14:19:29 51°14.073 2°55.452 157.3 6.9 155.6 10.8
2002-08-01 14:20:29 51°13.976 2°55.523 157.3 6.1 155.5 10.6
2002-08-01 14:21:29 51°13.886 2°55.591 156 5.9 154.1 10.4
2002-08-01 14:22:29 51°13.802 2°55.654 155.8 5.1 153.9 10.7
2002-08-01 14:23:29 51°13.742 2°55.723 134.7 4.1 134.2 10.2